Flight Track Log - Related Links

Times and Time Zones

All times are in EST time to prevent confusion due to time zone crossing. See the N897MB flight status page for this flight to view local times or setup timezone preferences in your user account.

Time Position Orientation Groundspeed Altitude Reporting Facility
EST Latitude Longitude Course Direction KTS MPH feet Rate Location/Type
Thu 03:28:00 PM 34.3258 -79.8536 323° Northwest  Level FlightAware Approximate
Thu 03:29:00 PM 34.3547 -79.8804 323° Northwest  Level FlightAware Approximate
Thu 03:30:00 PM 34.3836 -79.9073 323° Northwest  Level FlightAware Approximate
Thu 03:31:00 PM 34.4124 -79.9342 322° Northwest  Level FlightAware Approximate
Thu 03:32:00 PM 34.4413 -79.9610 322° Northwest  Level FlightAware Approximate
Thu 03:33:00 PM 34.4702 -79.9879 322° Northwest  Level FlightAware Approximate
Thu 03:34:00 PM 34.4990 -80.0148 322° Northwest  Level FlightAware Approximate
Thu 03:35:00 PM 34.5279 -80.0418 322° Northwest  Level FlightAware Approximate
Thu 03:36:00 PM 34.5567 -80.0687 322° Northwest  Level FlightAware Approximate
Thu 03:37:00 PM 34.5855 -80.0957 322° Northwest  Level FlightAware Approximate
Thu 03:38:00 PM 34.6144 -80.1227 322° Northwest  Level FlightAware Approximate
Thu 03:39:00 PM 34.6432 -80.1497 322° Northwest  Level FlightAware Approximate
Thu 03:40:00 PM 34.6720 -80.1767 322° Northwest  Level FlightAware Approximate
Thu 03:41:00 PM 34.7008 -80.2038 322° Northwest  Level FlightAware Approximate
Thu 03:42:00 PM 34.7296 -80.2309 322° Northwest  Level FlightAware Approximate
Thu 03:43:00 PM 34.7586 -80.2578 323° Northwest  Level FlightAware Approximate
Thu 03:44:00 PM 34.7877 -80.2843 323° Northwest  Level FlightAware Approximate
Thu 03:45:00 PM 34.8169 -80.3108 323° Northwest  Level FlightAware Approximate
Thu 03:46:00 PM 34.8461 -80.3373 323° Northwest  Level FlightAware Approximate
Thu 03:47:00 PM 34.8752 -80.3639 323° Northwest  Level FlightAware Approximate
Thu 03:48:00 PM 34.9044 -80.3905 323° Northwest  Level FlightAware Approximate
Thu 03:49:00 PM 34.9335 -80.4171 323° Northwest  Level FlightAware Approximate
Thu 03:50:00 PM 34.9627 -80.4437 323° Northwest  Level FlightAware Approximate
Thu 03:51:00 PM 34.9918 -80.4703 323° Northwest  Level FlightAware Approximate
Thu 03:51:48 PM 34.6467 -80.2767 321° Northwest 110 127 2,600  Level Atlanta Center
Thu 03:52:00 PM 35.0209 -80.4969 323° Northwest  Level FlightAware Approximate
Thu 03:52:43 PM 34.6658 -80.2911 328° Northwest 96 110 2,600  Level Atlanta Center
Thu 03:53:00 PM 35.0500 -80.5236 323° Northwest  Level FlightAware Approximate
Thu 03:53:44 PM 34.6914 -80.3100 329° Northwest 97 112 2,700  Level Atlanta Center
Thu 03:54:00 PM 35.0792 -80.5503 323° Northwest  Level FlightAware Approximate
Thu 03:54:44 PM 34.7131 -80.3319 320° Northwest 103 119 2,500  Level Atlanta Center
Thu 03:55:00 PM 35.1083 -80.5770 323° Northwest  Level FlightAware Approximate
Thu 03:55:57 PM 34.7408 -80.3558 325° Northwest 97 112 2,500  Level Atlanta Center
Thu 03:56:00 PM 35.1373 -80.6039 321° Northwest  Level FlightAware Approximate
Thu 03:56:52 PM 34.7600 -80.3703 328° Northwest 96 110 2,600  Level Atlanta Center
Thu 03:57:00 PM 35.1654 -80.6321 321° Northwest  Level FlightAware Approximate
Thu 03:57:47 PM 34.7833 -80.3844 333° Northwest 98 113 2,600  Level Atlanta Center
Thu 03:58:54 PM 34.8089 -80.4033 329° Northwest 99 114 2,600  Level Atlanta Center
Thu 03:59:55 PM 34.8322 -80.4178 333° Northwest 98 113 2,600  Level Atlanta Center
Thu 04:00:55 PM 34.8578 -80.4317 336° Northwest 95 109 2,600  Level Atlanta Center
Thu 04:01:56 PM 34.8872 -80.4431 342° North 98 113 2,600  Level Atlanta Center
Thu 04:03:03 PM 34.9108 -80.4572 334° Northwest 99 114 2,600  Level Atlanta Center
Thu 04:04:04 PM 34.9361 -80.4714 335° Northwest 98 113 2,600  Level Atlanta Center
Thu 04:04:59 PM 34.9575 -80.4858 331° Northwest 95 109 2,600  Level Atlanta Center
Thu 04:06:00 PM 34.9769 -80.5103 314° West 100 115 2,600  Level Atlanta Center
Thu 04:07:06 PM 35.0025 -80.5319 325° Northwest 101 116 2,600 -50 Level Atlanta Center
Thu 04:08:01 PM 35.0200 -80.5567 311° West 101 116 2,500  Descending Atlanta Center
Thu 04:09:02 PM 35.0394 -80.5786 317° Northwest 98 113 2,600 98 Climbing Atlanta Center

Login

Don't have an account? Register now (free) for customized features, flight alerts, and more!